Latest Weather Observations for Viewbank

IDV60801

Issued at 4:05 pm EST Monday 22 September 2014 (issued every 30 minutes, with the page automatically refreshed every 10 minutes)

About weather observations | Map of weather stations | Latest weather observations for VIC | Other Formats
Station Details ID: 086068 Name: VIEWBANK Lat: -37.74 Lon: 145.10 Height: 66.1 m
Data from the previous 72 hours. | See also: Recent months at Viewbank
Date/Time
EST
Temp
°C
App
Temp
°C
Dew
Point
Rel
Hum
%
Delta-T
°C
Wind Press
QNH
hPa
Press
MSL
hPa
Rain
since 9 am
mm
Dir
 
Spd
km/h
Gust
km/h
Spd
kts
Gust
kts
22/04:00pm 21.8 18.5 6.5 37 7.8 N 13 20 7 11 1025.7 1025.8 0.0
22/03:30pm 21.7 18.1 6.8 38 7.6 N 15 22 8 12 1025.8 1025.9 0.0
22/03:00pm 21.6 17.5 6.3 37 7.7 N 17 24 9 13 1026.0 1026.1 0.0
22/02:30pm 21.6 18.1 7.1 39 7.5 NNW 15 24 8 13 1026.2 1026.3 0.0
22/02:00pm 22.1 19.0 7.1 38 7.7 NW 13 22 7 12 1026.3 1026.4 0.0
22/01:30pm 21.3 17.0 6.8 39 7.4 NNW 19 28 10 15 1026.7 1026.8 0.0
22/01:00pm 21.4 18.9 8.3 43 6.8 N 11 20 6 11 1027.0 1027.1 0.0
22/12:30pm 21.0 19.2 9.3 47 6.3 NW 9 22 5 12 1027.4 1027.5 0.0
22/12:00pm 20.9 18.3 9.5 48 6.1 NNW 13 22 7 12 1027.9 1028.0 0.0
22/11:30am 20.2 18.8 9.5 50 5.7 NNW 7 17 4 9 1028.5 1028.5 0.0
22/11:00am 18.6 16.9 9.9 57 4.6 ENE 9 13 5 7 1028.9 1028.9 0.0
22/10:30am 16.4 14.9 9.1 62 3.8 ENE 7 13 4 7 1029.3 1029.3 0.0
22/10:00am 13.5 11.9 8.8 73 2.4 ENE 7 11 4 6 1029.7 1029.7 0.0
22/09:30am 11.2 10.1 8.4 83 1.4 ENE 4 9 2 5 1029.9 1029.9 0.0
22/09:00am 9.8 8.3 8.6 92 0.6 E 6 9 3 5 1030.1 1030.1 0.0
22/08:30am 8.0 6.4 7.9 99 0.0 ENE 6 7 3 4 1029.9 1029.9 0.0
22/08:00am 6.4 4.2 6.3 99 0.0 ENE 7 9 4 5 1029.9 1029.9 0.0
22/07:30am 5.3 3.1 5.3 100 0.0 NE 6 9 3 5 1029.8 1029.8 0.0
22/07:00am 3.7 2.3 3.7 100 0.0 CALM 0 6 0 3 1029.7 1029.7 0.0
22/06:30am 2.4 -0.3 2.4 100 0.0 NE 6 9 3 5 1029.5 1029.5 0.0
22/06:00am 3.2 1.7 3.2 100 0.0 NNE 0 4 0 2 1029.2 1029.2 0.0
22/05:30am 3.1 1.2 3.1 100 0.0 NE 2 6 1 3 1029.0 1029.0 0.0
22/05:00am 3.3 1.1 3.3 100 0.0 NE 4 7 2 4 1028.9 1028.9 0.0
22/04:30am 3.6 1.1 3.6 100 0.0 NNE 6 7 3 4 1029.0 1029.0 0.0
22/04:00am 3.8 2.4 3.8 100 0.0 CALM 0 0 0 0 1028.9 1028.9 0.0
22/03:30am 4.5 2.5 4.5 100 0.0 NNE 4 7 2 4 1028.9 1028.9 0.0
22/03:00am 4.8 2.5 4.8 100 0.0 NNE 6 9 3 5 1029.0 1029.0 0.0
22/02:30am 4.9 3.4 4.8 99 0.0 NNE 2 7 1 4 1029.3 1029.3 0.0
22/02:00am 5.3 4.2 5.2 99 0.0 CALM 0 0 0 0 1029.5 1029.5 0.0
22/01:30am 5.5 4.5 5.4 99 0.0 CALM 0 6 0 3 1029.7 1029.7 0.0
22/01:00am 6.1 4.8 6.0 99 0.0 NNE 2 6 1 3 1029.8 1029.8 0.0
22/12:30am 6.4 4.4 6.3 99 0.0 NNE 6 6 3 3 1029.7 1029.7 0.0
22/12:00am 7.1 5.0 6.8 98 0.1 NNE 7 9 4 5 1029.6 1029.6 0.0
 
Date/Time
EST
Temp
°C
App
Temp
°C
Dew
Point
Rel
Hum
%
Delta-T
°C
Wind Press
QNH
hPa
Press
MSL
hPa
Rain
since 9 am
mm
Dir
 
Spd
km/h
Gust
km/h
Spd
kts
Gust
kts
21/11:30pm 7.5 6.4 6.8 95 0.3 ESE 2 7 1 4 1029.8 1029.8 0.0
21/11:00pm 8.7 8.0 6.8 88 0.9 CALM 0 0 0 0 1030.0 1030.0 0.0
21/10:30pm 9.2 8.4 6.3 82 1.3 CALM 0 7 0 4 1030.2 1030.2 0.0
21/10:00pm 9.5 7.5 6.4 81 1.4 SSW 6 7 3 4 1030.4 1030.4 0.0
21/09:30pm 9.6 7.6 6.3 80 1.5 SW 6 7 3 4 1030.6 1030.6 0.0
21/09:00pm 10.0 7.8 6.2 77 1.8 SW 7 9 4 5 1030.5 1030.5 0.0
21/08:30pm 10.5 8.3 6.3 75 2.0 SSW 7 11 4 6 1030.6 1030.6 0.0
21/08:00pm 11.1 9.0 6.6 74 2.1 S 7 13 4 7 1030.4 1030.4 0.0
21/07:30pm 11.5 8.6 6.6 72 2.3 S 11 19 6 10 1030.4 1030.4 0.0
21/07:00pm 11.6 9.5 6.5 71 2.4 SW 7 13 4 7 1030.1 1030.1 0.0
21/06:30pm 12.1 9.2 6.4 68 2.7 SSW 11 19 6 10 1029.9 1029.9 0.0
21/06:00pm 12.9 9.6 6.5 65 3.0 S 13 20 7 11 1029.7 1029.7 0.0
21/05:30pm 14.0 10.3 6.4 60 3.7 S 15 24 8 13 1029.3 1029.3 0.0
21/05:00pm 15.2 12.1 7.2 59 3.9 S 13 20 7 11 1029.1 1029.1 0.0
21/04:30pm 15.5 11.5 6.8 56 4.3 SW 17 30 9 16 1028.9 1028.9 0.0
21/04:00pm 15.9 11.4 6.3 53 4.6 SW 19 26 10 14 1029.0 1029.0 0.0
21/03:30pm 17.0 13.9 7.4 53 4.8 SW 13 19 7 10 1029.0 1029.0 0.0
21/03:00pm 17.2 15.4 7.8 54 4.7 SSW 7 13 4 7 1029.2 1029.2 0.0
21/02:30pm 16.6 14.1 4.9 46 5.6 SSE 7 15 4 8 1029.5 1029.5 0.0
21/02:00pm 16.7 14.6 6.5 51 5.0 SE 7 15 4 8 1029.9 1029.9 0.0
21/01:30pm 16.7 14.3 7.1 53 4.8 S 9 19 5 10 1030.1 1030.1 0.0
21/01:00pm 16.4 14.5 6.8 53 4.7 S 6 11 3 6 1030.5 1030.5 0.0
21/12:30pm 15.7 12.9 5.0 49 5.1 SSE 9 17 5 9 1030.9 1030.9 0.0
21/12:00pm 15.2 12.7 4.6 49 4.9 SE 7 19 4 10 1031.2 1031.2 0.0
21/11:30am 15.4 11.9 5.3 51 4.8 ESE 13 20 7 11 1031.6 1031.6 0.0
21/11:00am 14.7 11.6 5.5 54 4.3 SE 11 20 6 11 1031.8 1031.8 0.0
21/10:30am 14.0 10.9 5.4 56 4.1 SE 11 19 6 10 1031.9 1031.9 0.0
21/10:00am 13.6 10.2 5.7 59 3.7 ESE 13 20 7 11 1031.9 1031.9 0.0
21/09:30am 13.2 9.6 4.9 57 3.8 SE 13 20 7 11 1031.8 1031.8 0.0
21/09:00am 12.8 9.7 5.5 61 3.4 E 11 19 6 10 1031.6 1031.6 0.0
21/08:30am 12.1 10.5 7.8 75 2.1 ESE 6 13 3 7 1031.4 1031.4 0.0
21/08:00am 10.1 10.0 9.6 97 0.2 CALM 0 0 0 0 1031.5 1031.5 0.0
21/07:30am 8.8 7.8 8.8 100 0.0 ENE 4 7 2 4 1031.3 1031.3 0.0
21/07:00am 8.2 7.8 8.2 100 0.0 CALM 0 7 0 4 1031.0 1031.0 0.0
21/06:30am 8.0 7.1 7.9 99 0.0 E 2 7 1 4 1030.7 1030.7 0.0
21/06:00am 8.2 7.8 8.1 99 0.0 CALM 0 0 0 0 1030.3 1030.3 0.0
21/05:30am 8.4 8.0 8.3 99 0.0 CALM 0 0 0 0 1030.2 1030.2 0.0
21/05:00am 8.6 7.5 8.5 99 0.0 ESE 4 7 2 4 1030.1 1030.1 0.0
21/04:30am 8.9 8.6 8.8 99 0.0 CALM 0 0 0 0 1030.0 1030.0 0.0
21/04:00am 8.8 8.5 8.7 99 0.0 CALM 0 0 0 0 1029.8 1029.8 0.0
21/03:30am 8.4 8.0 8.3 99 0.0 CALM 0 0 0 0 1029.8 1029.8 0.0
21/03:00am 8.2 7.4 8.1 99 0.0 WSW 2 7 1 4 1029.9 1029.9 0.0
21/02:30am 8.5 8.1 8.4 99 0.0 CALM 0 0 0 0 1029.8 1029.8 0.0
21/02:00am 8.1 7.6 8.0 99 0.0 CALM 0 0 0 0 1030.0 1030.0 0.0
21/01:30am 8.2 7.8 8.1 99 0.0 CALM 0 6 0 3 1030.0 1030.0 0.0
21/01:00am 8.5 8.1 8.4 99 0.0 CALM 0 0 0 0 1030.2 1030.2 0.0
21/12:30am 8.4 8.0 8.3 99 0.0 CALM 0 6 0 3 1030.2 1030.2 0.0
21/12:00am 8.5 7.8 8.4 99 0.0 S 2 6 1 3 1030.2 1030.2 0.0
 
Date/Time
EST
Temp
°C
App
Temp
°C
Dew
Point
Rel
Hum
%
Delta-T
°C
Wind Press
QNH
hPa
Press
MSL
hPa
Rain
since 9 am
mm
Dir
 
Spd
km/h
Gust
km/h
Spd
kts
Gust
kts
20/11:30pm 8.5 8.1 8.4 99 0.0 CALM 0 0 0 0 1030.1 1030.1 0.0
20/11:00pm 8.8 7.6 8.2 96 0.3 S 4 7 2 4 1030.0 1030.0 0.0
20/10:30pm 9.2 8.0 8.1 93 0.5 S 4 6 2 3 1030.2 1030.2 0.0
20/10:00pm 9.7 9.2 8.0 89 0.8 CALM 0 0 0 0 1030.1 1030.1 0.0
20/09:30pm 10.4 9.1 7.6 83 1.3 SSE 4 7 2 4 1030.1 1030.1 0.0
20/09:00pm 11.3 9.6 8.2 81 1.5 S 7 11 4 6 1030.4 1030.4 0.0
20/08:30pm 11.4 8.8 7.9 79 1.7 S 11 17 6 9 1030.3 1030.3 0.0
20/08:00pm 11.6 9.5 8.1 79 1.7 S 9 17 5 9 1030.1 1030.1 0.0
20/07:30pm 11.7 9.6 8.2 79 1.7 SSE 9 17 5 9 1029.7 1029.7 0.0
20/07:00pm 12.1 9.9 8.0 76 2.0 SSE 9 13 5 7 1029.4 1029.4 0.0
20/06:30pm 12.5 9.6 8.0 74 2.2 S 13 20 7 11 1029.0 1029.0 0.0
20/06:00pm 12.7 9.4 8.0 73 2.3 S 15 24 8 13 1028.8 1028.8 0.0
20/05:30pm 12.9 9.1 7.4 69 2.7 S 17 28 9 15 1028.4 1028.4 0.0
20/05:00pm 13.1 9.3 7.5 69 2.7 S 17 24 9 13 1028.1 1028.1 0.0
20/04:30pm 13.3 8.9 7.5 68 2.8 S 20 28 11 15 1027.7 1027.8 0.0
20/04:00pm 14.1 10.0 7.9 66 3.1 SSW 19 30 10 16 1027.4 1027.5 0.0
20/03:30pm 13.9 9.5 7.2 64 3.3 SSW 20 32 11 17 1027.1 1027.2 0.0
20/03:00pm 14.0 9.8 7.3 64 3.3 S 19 28 10 15 1026.9 1027.0 0.0
20/02:30pm 14.1 9.7 7.2 63 3.4 S 20 28 11 15 1026.9 1027.0 0.0
20/02:00pm 14.6 10.4 7.4 62 3.5 S 19 30 10 16 1026.8 1026.9 0.0
20/01:30pm 14.5 11.0 7.1 61 3.6 S 15 24 8 13 1026.9 1027.0 0.0
20/01:00pm 14.6 11.0 6.9 60 3.7 SSW 15 26 8 14 1027.0 1027.1 0.0
20/12:30pm 13.8 10.1 7.8 67 3.0 SSW 17 26 9 14 1027.2 1027.3 0.0
20/12:00pm 13.0 9.3 7.9 71 2.5 SSW 17 28 9 15 1027.6 1027.7 0.0
20/11:30am 13.6 10.7 9.6 77 2.1 SW 15 22 8 12 1027.7 1027.8 0.0
20/11:00am 13.0 10.3 9.1 77 2.0 SW 13 19 7 10 1027.8 1027.9 0.0
20/10:30am 12.6 9.3 8.1 74 2.2 SW 15 22 8 12 1027.9 1028.0 0.0
20/10:00am 12.9 9.6 8.2 73 2.3 SSW 15 24 8 13 1028.1 1028.1 0.0
20/09:30am 12.3 9.9 8.8 79 1.8 S 11 17 6 9 1028.2 1028.2 0.0
20/09:00am 11.8 9.4 9.9 88 1.0 S 13 24 7 13 1028.1 1028.1 0.0
20/08:30am 11.6 8.7 9.5 87 1.1 SSW 15 22 8 12 1027.7 1027.8 0.0
20/08:00am 10.9 9.9 10.4 97 0.3 SW 6 13 3 7 1027.5 1027.6 0.0
20/07:30am 10.1 9.4 9.9 99 0.1 SSW 4 6 2 3 1027.2 1027.3 0.0
20/07:00am 9.4 9.3 9.3 99 0.0 CALM 0 0 0 0 1026.9 1027.0 0.0
20/06:30am 9.1 8.1 9.0 99 0.0 WSW 4 6 2 3 1026.5 1026.6 0.0
20/06:00am 9.0 7.4 8.1 94 0.4 WSW 6 9 3 5 1026.1 1026.2 0.0
20/05:30am 9.2 7.5 7.6 90 0.8 W 6 9 3 5 1025.8 1025.9 0.0
20/05:00am 9.1 8.6 7.9 92 0.6 CALM 0 7 0 4 1025.5 1025.6 0.0
20/04:30am 9.1 8.1 7.5 90 0.8 SSW 2 6 1 3 1025.2 1025.3 0.0
20/04:00am 9.3 8.7 7.6 89 0.8 CALM 0 0 0 0 1025.1 1025.2 0.0
20/03:30am 9.2 8.7 7.8 91 0.7 CALM 0 0 0 0 1025.0 1025.1 0.0
20/03:00am 9.8 8.2 8.7 93 0.5 SW 7 11 4 6 1025.0 1025.1 0.0
20/02:30am 9.6 8.4 9.5 99 0.0 WSW 6 7 3 4 1025.2 1025.3 0.0
20/02:00am 9.5 8.1 9.0 97 0.2 WSW 6 7 3 4 1025.2 1025.3 0.0
20/01:30am 9.7 7.3 8.8 94 0.4 SSW 11 19 6 10 1025.5 1025.6 0.0
20/01:00am 10.9 7.6 6.6 75 2.0 SW 13 20 7 11 1025.6 1025.7 0.0
20/12:30am 11.0 8.5 6.6 74 2.1 SW 9 17 5 9 1025.3 1025.4 0.0
20/12:00am 11.3 8.5 6.8 74 2.1 SSW 11 19 6 10 1025.2 1025.3 0.0
 
Date/Time
EST
Temp
°C
App
Temp
°C
Dew
Point
Rel
Hum
%
Delta-T
°C
Wind Press
QNH
hPa
Press
MSL
hPa
Rain
since 9 am
mm
Dir
 
Spd
km/h
Gust
km/h
Spd
kts
Gust
kts
19/11:30pm 11.4 8.7 7.3 76 2.0 SSW 11 19 6 10 1025.3 1025.4 0.0
19/11:00pm 11.3 9.1 6.2 71 2.4 SSW 7 9 4 5 1025.6 1025.7 0.0
19/10:30pm 11.5 8.5 6.2 70 2.5 SSW 11 15 6 8 1025.7 1025.8 0.0
19/10:00pm 11.7 8.7 6.2 69 2.6 S 11 15 6 8 1025.8 1025.9 0.0
19/09:30pm 11.7 8.8 6.4 70 2.5 S 11 19 6 10 1025.9 1026.0 0.0
19/09:00pm 11.8 8.5 6.3 69 2.6 S 13 20 7 11 1025.7 1025.8 0.0
19/08:30pm 11.9 8.3 6.6 70 2.5 SSW 15 22 8 12 1025.5 1025.6 0.0
19/08:00pm 12.0 8.5 7.1 72 2.3 S 15 24 8 13 1025.4 1025.5 0.0
19/07:30pm 11.9 8.8 7.4 74 2.2 S 13 19 7 10 1025.1 1025.2 0.0
19/07:00pm 11.6 9.2 6.9 73 2.2 SSW 9 15 5 8 1024.9 1025.0 0.0
19/06:30pm 11.8 8.5 6.5 70 2.5 SSW 13 20 7 11 1024.6 1024.7 0.0
19/06:00pm 12.2 8.3 7.1 71 2.4 SSW 17 24 9 13 1024.4 1024.5 0.0
19/05:30pm 13.0 9.8 7.0 67 2.9 S 13 20 7 11 1024.2 1024.3 0.0
19/05:00pm 13.5 9.9 6.6 63 3.3 SSW 15 24 8 13 1023.9 1023.9 0.0
19/04:30pm 14.1 9.7 6.7 61 3.6 S 19 24 10 13 1023.7 1023.7 0.0

Other Formats:

Comma delimited format used in spreadsheet applications
http://www.bom.gov.au/fwo/IDV60801/IDV60801.95874.axf

JavaScript Object Notation format (JSON) in row-major order
http://www.bom.gov.au/fwo/IDV60801/IDV60801.95874.json